Latest Weather Observations for Larapuna (Eddystone Point)

IDT60801

Issued at 10:01 pm EST Sunday 2 August 2015 (issued every 30 minutes, with the page automatically refreshed every 10 minutes)

About weather observations | Map of weather stations | Latest weather observations for TAS | Other Formats
Station Details ID: 092045 Name: LARAPUNA (EDDYSTONE POINT) Lat: -40.99 Lon: 148.35 Height: 19.7 m
Data from the previous 72 hours. | See also: Recent months at Larapuna (Eddystone Point)
Date/Time
EST
Temp
°C
App
Temp
°C
Dew
Point
Rel
Hum
%
Delta-T
°C
Wind Press
QNH
hPa
Press
MSL
hPa
Rain
since 9 am
mm
Dir
 
Spd
km/h
Gust
km/h
Spd
kts
Gust
kts
02/10:00pm 7.1 2.3 2.6 73 1.9 NW 17 24 9 13 1000.4 1000.4 1.0
02/09:30pm 6.7 1.3 2.4 74 1.8 NW 20 28 11 15 1001.1 1001.1 1.0
02/09:00pm 6.2 0.3 1.7 73 1.8 WNW 22 32 12 17 1001.6 1001.6 1.0
02/08:30pm 6.0 -0.9 2.6 79 1.4 WNW 28 39 15 21 1001.9 1001.9 1.0
02/08:00pm 5.6 -1.3 2.4 80 1.3 WNW 28 39 15 21 1002.1 1002.1 1.0
02/07:30pm 5.8 -0.7 2.8 81 1.2 WNW 26 41 14 22 1001.7 1001.7 1.0
02/07:02pm 7.2 0.0 0.9 64 2.5 WNW 28 46 15 25 1001.8 1001.8 0.6
02/07:00pm 7.2 0.0 0.6 63 2.6 WNW 28 39 15 21 1001.7 1001.7 0.6
02/06:30pm 7.2 -0.8 0.4 62 2.7 WNW 32 43 17 23 1001.5 1001.5 0.6
02/06:04pm 7.7 -0.5 2.6 70 2.1 WNW 35 54 19 29 1001.0 1001.0 0.6
02/06:00pm 7.6 -1.1 2.3 69 2.2 WNW 37 50 20 27 1000.9 1000.9 0.6
02/05:35pm 7.8 -0.1 2.5 69 2.2 WNW 33 54 18 29 1000.4 1000.4 0.6
02/05:30pm 7.7 -0.6 2.4 69 2.2 WNW 35 50 19 27 1000.2 1000.2 0.6
02/05:01pm 8.1 -1.0 2.1 66 2.5 WNW 39 57 21 31 1000.0 1000.0 0.6
02/05:00pm 8.2 -1.2 2.2 66 2.5 WNW 41 57 22 31 999.9 999.9 0.6
02/04:32pm 9.0 2.1 2.8 65 2.6 WNW 28 50 15 27 999.3 999.3 0.6
02/04:30pm 8.9 2.2 3.7 70 2.3 WNW 28 39 15 21 999.2 999.2 0.6
02/04:00pm 9.3 0.0 4.9 74 2.0 WNW 43 65 23 35 999.2 999.2 0.6
02/03:30pm 9.9 -0.1 6.1 77 1.8 NW 48 69 26 37 998.2 998.2 0.6
02/03:00pm 10.1 0.0 7.5 84 1.3 NW 50 70 27 38 998.2 998.2 0.6
02/02:30pm 10.8 -0.2 6.9 77 1.8 NW 54 74 29 40 997.9 997.9 0.6
02/02:00pm 9.6 -2.2 7.4 86 1.1 NW 59 80 32 43 998.3 998.3 0.6
02/01:30pm 10.9 -1.0 7.2 78 1.8 NW 59 80 32 43 998.5 998.5 0.4
02/01:00pm 11.9 -0.1 6.6 70 2.5 NW 59 80 32 43 999.3 999.3 0.4
02/12:30pm 11.6 -1.6 6.3 70 2.5 NW 65 85 35 46 999.9 999.9 0.4
02/12:18pm 11.4 0.2 5.9 69 2.6 NW 54 89 29 48 1000.2 1000.2 0.4
02/12:01pm 11.0 1.0 6.2 72 2.2 NW 48 67 26 36 1000.8 1000.8 0.4
02/12:00pm 11.0 0.6 6.0 71 2.3 NW 50 67 27 36 1000.8 1000.8 0.4
02/11:30am 11.2 0.7 5.7 69 2.5 NW 50 74 27 40 1001.8 1001.8 0.2
02/11:00am 9.8 0.2 6.2 78 1.7 NW 46 65 25 35 1002.5 1002.5 0.2
02/10:30am 8.7 -1.3 6.0 83 1.2 NW 48 70 26 38 1003.1 1003.1 0.2
02/10:00am 9.7 0.1 6.1 78 1.7 NW 46 69 25 37 1003.4 1003.4 0.2
02/09:51am 9.1 -1.0 5.8 80 1.5 NW 48 69 26 37 1003.7 1003.7 0.2
02/09:30am 9.0 -1.2 5.4 78 1.6 NW 48 65 26 35 1003.9 1003.9 0.2
02/09:00am 9.0 -0.2 6.3 83 1.3 NW 44 57 24 31 1004.4 1004.4 0.0
02/08:30am 9.0 0.3 5.9 81 1.4 NW 41 54 22 29 1004.6 1004.6 0.0
02/08:03am 9.1 0.9 6.7 85 1.1 NW 39 57 21 31 1005.2 1005.2 0.0
02/08:00am 9.3 1.4 6.4 82 1.3 NW 37 50 20 27 1005.2 1005.2 0.0
02/07:30am 9.6 2.2 5.2 74 2.0 NW 33 43 18 23 1005.4 1005.4 0.0
02/07:00am 9.3 1.9 4.9 74 2.0 NW 33 44 18 24 1005.5 1005.5 0.0
02/06:30am 9.1 3.1 5.5 78 1.6 NW 26 35 14 19 1006.0 1006.0 0.0
02/06:00am 8.8 3.2 5.2 78 1.6 NW 24 32 13 17 1006.3 1006.3 0.0
02/05:30am 8.9 1.7 4.9 76 1.8 NW 32 46 17 25 1006.4 1006.4 0.0
02/05:00am 8.8 1.6 5.0 77 1.7 NW 32 44 17 24 1006.7 1006.7 0.0
02/04:30am 8.7 1.8 4.7 76 1.8 NW 30 44 16 24 1006.9 1006.9 0.0
02/04:00am 8.5 2.0 4.9 78 1.6 NW 28 39 15 21 1007.6 1007.6 0.0
02/03:30am 8.3 1.5 4.9 79 1.5 NW 30 39 16 21 1007.8 1007.8 0.0
02/03:00am 8.5 2.4 4.9 78 1.6 WNW 26 35 14 19 1008.3 1008.3 0.0
02/02:30am 8.3 3.3 4.5 77 1.7 NW 20 28 11 15 1008.9 1008.9 0.0
02/02:00am 8.1 3.1 4.5 78 1.6 NW 20 26 11 14 1009.2 1009.2 0.0
02/01:30am 8.3 3.2 4.1 75 1.8 NW 20 30 11 16 1009.5 1009.5 0.0
02/01:00am 8.1 3.2 3.9 75 1.8 NW 19 24 10 13 1009.7 1009.7 0.0
02/12:30am 7.7 2.7 3.7 76 1.7 NW 19 28 10 15 1009.8 1009.8 0.0
02/12:00am 7.6 2.6 3.6 76 1.7 NW 19 26 10 14 1010.3 1010.3 0.0
 
Date/Time
EST
Temp
°C
App
Temp
°C
Dew
Point
Rel
Hum
%
Delta-T
°C
Wind Press
QNH
hPa
Press
MSL
hPa
Rain
since 9 am
mm
Dir
 
Spd
km/h
Gust
km/h
Spd
kts
Gust
kts
01/11:30pm 7.4 2.8 3.5 76 1.7 NW 17 22 9 12 1010.7 1010.7 0.0
01/11:00pm 7.7 2.6 2.8 71 2.1 NW 19 26 10 14 1010.5 1010.5 0.0
01/10:30pm 7.9 2.8 3.0 71 2.1 NW 19 24 10 13 1010.9 1010.9 0.0
01/10:00pm 7.4 2.6 2.7 72 2.0 NW 17 20 9 11 1011.0 1011.0 0.0
01/09:30pm 7.4 2.7 2.9 73 1.9 NW 17 20 9 11 1011.0 1011.0 0.0
01/09:00pm 7.1 3.1 2.6 73 1.9 NW 13 20 7 11 1010.9 1010.9 0.0
01/08:30pm 7.3 3.3 2.8 73 1.9 NNW 13 20 7 11 1011.1 1011.1 0.0
01/08:00pm 7.6 3.3 3.3 74 1.8 NW 15 20 8 11 1010.8 1010.8 0.0
01/07:30pm 7.9 3.8 2.4 68 2.3 NNW 13 20 7 11 1010.6 1010.6 0.0
01/07:00pm 7.7 3.2 2.0 67 2.4 NW 15 30 8 16 1010.1 1010.1 0.0
01/06:30pm 7.9 2.7 2.4 68 2.3 NW 19 30 10 16 1009.3 1009.3 0.0
01/06:00pm 7.9 1.7 2.2 67 2.4 W 24 41 13 22 1009.0 1009.0 0.0
01/05:30pm 7.7 1.1 2.0 67 2.3 W 26 35 14 19 1008.9 1008.9 0.0
01/05:00pm 8.1 1.1 1.9 65 2.6 W 28 43 15 23 1008.3 1008.3 0.0
01/04:55pm 8.0 0.6 2.0 66 2.5 W 30 48 16 26 1008.2 1008.2 0.0
01/04:30pm 8.5 0.5 1.6 62 2.8 WNW 33 46 18 25 1007.9 1007.9 0.0
01/04:00pm 9.2 1.8 2.1 61 3.0 WNW 30 46 16 25 1008.0 1008.0 0.0
01/03:40pm 10.2 2.8 1.8 56 3.5 W 30 54 16 29 1007.8 1007.8 0.0
01/03:30pm 10.4 2.9 1.5 54 3.7 WNW 30 41 16 22 1007.8 1007.8 0.0
01/03:00pm 10.5 2.5 1.9 55 3.6 W 33 54 18 29 1007.5 1007.5 0.0
01/02:30pm 11.1 2.0 -0.4 45 4.6 W 37 56 20 30 1007.2 1007.2 0.0
01/02:00pm 11.4 2.2 -1.0 42 5.0 W 37 59 20 32 1006.8 1006.8 0.0
01/01:40pm 11.2 2.1 -0.6 44 4.7 W 37 56 20 30 1006.5 1006.5 0.0
01/01:30pm 11.6 3.6 0.4 46 4.6 W 32 44 17 24 1006.5 1006.5 0.0
01/01:00pm 11.6 3.1 1.0 48 4.4 W 35 54 19 29 1005.9 1005.9 0.0
01/12:34pm 11.3 2.1 1.5 51 4.1 W 39 57 21 31 1005.8 1005.8 0.0
01/12:30pm 11.1 1.1 1.1 50 4.2 W 43 57 23 31 1005.7 1005.7 0.0
01/12:04pm 11.1 3.8 2.2 54 3.8 W 30 48 16 26 1005.6 1005.6 0.0
01/12:00pm 11.1 3.8 2.7 56 3.6 W 30 46 16 25 1005.5 1005.5 0.0
01/11:45am 11.2 2.7 3.3 58 3.5 W 37 56 20 30 1005.5 1005.5 0.0
01/11:30am 10.9 2.7 2.7 57 3.5 WNW 35 52 19 28 1005.3 1005.3 0.0
01/11:00am 11.2 3.5 3.5 59 3.4 WNW 33 52 18 28 1004.9 1004.9 0.0
01/10:31am 10.4 1.0 4.5 67 2.6 W 43 67 23 36 1004.2 1004.2 0.0
01/10:30am 10.4 1.1 4.8 68 2.5 W 43 59 23 32 1004.2 1004.2 0.0
01/10:00am 10.2 1.6 6.5 78 1.7 WNW 41 63 22 34 1003.6 1003.6 0.0
01/09:38am 9.6 1.8 6.7 82 1.4 WNW 37 57 20 31 1003.0 1003.0 0.0
01/09:30am 9.3 1.1 6.4 82 1.3 WNW 39 54 21 29 1002.9 1002.9 0.0
01/09:00am 8.7 0.9 6.5 86 1.0 WNW 37 56 20 30 1002.4 1002.4 8.0
01/08:45am 8.7 1.0 7.0 89 0.8 WNW 37 57 20 31 1002.5 1002.5 8.0
01/08:30am 8.6 1.3 7.1 90 0.7 WNW 35 50 19 27 1002.1 1002.1 8.0
01/08:02am 9.6 1.8 8.4 92 0.6 NW 39 56 21 30 1001.9 1001.9 7.8
01/08:00am 9.8 1.8 8.9 94 0.4 NW 41 57 22 31 1002.0 1002.0 7.8
01/07:36am 10.1 1.8 9.2 94 0.4 NNW 43 63 23 34 1001.6 1001.6 6.6
01/07:30am 10.1 1.6 9.2 94 0.4 NNW 44 59 24 32 1001.6 1001.6 6.6
01/07:00am 10.1 0.4 9.0 93 0.5 NNW 50 69 27 37 1001.6 1001.6 5.2
01/06:33am 9.8 1.1 8.6 92 0.6 NNW 44 63 24 34 1001.8 1001.8 4.4
01/06:30am 9.8 0.7 8.6 92 0.6 NNW 46 63 25 34 1001.9 1001.9 4.4
01/06:17am 9.8 1.7 8.6 92 0.6 NNW 41 61 22 33 1001.8 1001.8 4.2
01/06:00am 9.6 1.0 8.2 91 0.7 NNW 43 57 23 31 1002.0 1002.0 3.6
01/05:30am 9.5 0.6 7.8 89 0.8 NNW 44 57 24 31 1002.5 1002.5 2.6
01/05:03am 9.7 1.0 7.8 88 0.9 NNW 43 61 23 33 1002.7 1002.7 2.0
01/05:00am 9.8 1.2 8.2 90 0.8 NNW 43 57 23 31 1002.7 1002.7 1.8
01/04:34am 9.4 0.5 7.8 90 0.8 NNW 44 63 24 34 1002.9 1002.9 1.0
01/04:30am 9.5 0.3 7.9 90 0.8 NNW 46 63 25 34 1003.0 1003.0 0.8
01/04:04am 9.5 -1.5 6.9 84 1.2 NW 54 72 29 39 1003.1 1003.1 0.2
01/04:00am 9.6 -1.9 6.9 83 1.3 NW 57 72 31 39 1003.0 1003.0 0.0
01/03:30am 10.8 -1.0 5.8 71 2.3 NNW 57 78 31 42 1003.4 1003.4 0.0
01/03:00am 10.8 -0.3 6.4 74 2.1 NNW 54 72 29 39 1004.8 1004.8 0.0
01/02:30am 10.8 1.0 7.1 78 1.8 NNW 48 69 26 37 1005.5 1005.5 0.0
01/02:00am 10.4 -1.0 6.5 77 1.8 NNW 56 74 30 40 1006.3 1006.3 0.0
01/01:40am 10.3 -0.8 6.5 77 1.8 NNW 54 72 29 39 1006.9 1006.9 0.0
01/01:30am 10.2 -0.9 6.2 76 1.9 NNW 54 70 29 38 1007.2 1007.2 0.0
01/01:00am 10.3 -0.9 6.1 75 2.0 NNW 54 72 29 39 1008.3 1008.3 0.0
01/12:56am 10.0 -1.0 5.2 72 2.2 NNW 52 72 28 39 1008.3 1008.3 0.0
01/12:30am 10.1 -0.1 5.3 72 2.2 NNW 48 65 26 35 1008.8 1008.8 0.0
01/12:29am 10.1 0.3 5.1 71 2.3 NNW 46 65 25 35 1008.9 1008.9 0.0
01/12:00am 10.3 1.9 5.7 73 2.1 NNW 39 54 21 29 1009.6 1009.6 0.0
 
Date/Time
EST
Temp
°C
App
Temp
°C
Dew
Point
Rel
Hum
%
Delta-T
°C
Wind Press
QNH
hPa
Press
MSL
hPa
Rain
since 9 am
mm
Dir
 
Spd
km/h
Gust
km/h
Spd
kts
Gust
kts
31/11:51pm 10.5 1.8 5.9 73 2.1 NNW 41 59 22 32 1009.8 1009.8 0.0
31/11:30pm 10.4 1.1 5.2 70 2.4 NNW 43 56 23 30 1010.2 1010.2 0.0
31/11:00pm 10.0 1.8 4.6 69 2.4 NNW 37 52 20 28 1010.7 1010.7 0.0
31/10:30pm 10.0 0.9 4.2 67 2.6 NNW 41 54 22 29 1011.0 1011.0 0.0
31/10:17pm 10.0 1.3 4.2 67 2.6 NNW 39 57 21 31 1011.3 1011.3 0.0
31/10:00pm 10.1 1.8 4.3 67 2.6 NNW 37 52 20 28 1011.6 1011.6 0.0
31/09:30pm 10.2 1.5 4.1 66 2.7 NNW 39 52 21 28 1012.2 1012.2 0.0
31/09:08pm 10.0 2.4 5.6 74 2.0 NNW 35 54 19 29 1012.3 1012.3 0.0
31/09:00pm 9.8 3.2 6.0 77 1.8 NNW 30 43 16 23 1012.4 1012.4 0.0
31/08:30pm 9.1 2.9 6.0 81 1.4 NW 28 39 15 21 1013.0 1013.0 0.0
31/08:00pm 8.6 1.0 5.9 83 1.2 NW 35 44 19 24 1013.1 1013.1 0.0
31/07:30pm 8.7 0.7 5.8 82 1.3 NW 37 48 20 26 1013.0 1013.0 0.0
31/07:00pm 8.7 1.6 5.6 81 1.4 NW 32 44 17 24 1013.3 1013.3 0.0
31/06:30pm 8.7 0.6 5.3 79 1.5 NW 37 46 20 25 1013.2 1013.2 0.0
31/06:00pm 8.5 2.3 4.1 74 1.9 NW 26 35 14 19 1013.4 1013.4 0.0
31/05:30pm 8.6 3.2 4.6 76 1.8 NW 22 30 12 16 1013.3 1013.3 0.0
31/05:00pm 9.1 2.6 4.5 73 2.0 NW 28 35 15 19 1013.4 1013.4 0.0
31/04:30pm 9.7 3.2 4.5 70 2.3 NW 28 39 15 21 1013.5 1013.5 0.0
31/04:00pm 10.2 4.3 4.1 66 2.7 NW 24 37 13 20 1014.0 1014.0 0.0
31/03:30pm 10.4 3.3 3.4 62 3.1 WNW 30 48 16 26 1014.3 1014.3 0.0
31/03:19pm 10.4 2.9 3.7 63 2.9 WNW 32 50 17 27 1014.4 1014.4 0.0
31/03:00pm 10.9 3.3 3.0 58 3.4 NW 32 46 17 25 1014.4 1014.4 0.0
31/02:36pm 11.4 3.8 2.7 55 3.8 WNW 32 50 17 27 1014.4 1014.4 0.0
31/02:30pm 11.5 3.7 2.8 55 3.8 WNW 33 48 18 26 1014.4 1014.4 0.0
31/02:00pm 11.7 4.1 3.0 55 3.8 WNW 32 43 17 23 1014.6 1014.6 0.0
31/01:30pm 11.5 3.5 1.7 51 4.2 WNW 33 50 18 27 1014.9 1014.9 0.0
31/01:23pm 11.6 4.7 2.4 53 4.0 WNW 28 50 15 27 1014.9 1014.9 0.0
31/01:00pm 11.8 4.9 2.8 54 3.9 WNW 28 41 15 22 1015.2 1015.2 0.0
31/12:39pm 11.2 3.8 1.7 52 4.0 WNW 30 48 16 26 1015.6 1015.6 0.0
31/12:30pm 11.1 5.0 2.9 57 3.6 WNW 24 33 13 18 1015.8 1015.8 0.0
31/12:00pm 10.8 3.4 1.6 53 3.9 WNW 30 46 16 25 1016.4 1016.4 0.0
31/11:30am 10.6 4.1 2.4 57 3.5 WNW 26 43 14 23 1016.8 1016.8 0.0
31/11:00am 10.5 4.3 2.1 56 3.6 WNW 24 33 13 18 1016.9 1016.9 0.0
31/10:30am 9.6 3.8 2.2 60 3.1 WNW 22 28 12 15 1016.9 1016.9 0.0
31/10:00am 9.2 3.7 1.6 59 3.1 WNW 20 28 11 15 1016.7 1016.7 0.0
31/09:30am 8.3 2.7 1.0 60 3.0 WNW 20 30 11 16 1016.7 1016.7 0.0
31/09:00am 7.0 0.6 1.1 66 2.4 WNW 24 32 13 17 1016.3 1016.3 1.6
31/08:30am 5.8 -1.0 1.0 71 1.9 WNW 26 32 14 17 1015.9 1015.9 1.6
31/08:00am 5.1 -2.2 0.3 71 1.8 WNW 28 35 15 19 1015.6 1015.6 1.6
31/07:30am 4.3 -3.7 0.6 77 1.4 WNW 32 37 17 20 1015.1 1015.1 1.6
31/07:00am 4.4 -2.8 0.6 76 1.5 WNW 28 35 15 19 1014.6 1014.6 1.6
31/06:30am 4.6 -1.9 0.4 74 1.6 W 24 32 13 17 1014.2 1014.2 1.6
31/06:00am 4.5 -1.2 0.3 74 1.6 W 20 28 11 15 1013.9 1013.9 1.6
31/05:30am 4.3 -0.9 0.3 75 1.5 W 17 22 9 12 1013.6 1013.6 1.6
31/05:00am 5.1 -0.6 0.7 73 1.7 W 20 26 11 14 1013.1 1013.1 1.6
31/04:30am 5.2 -1.2 0.8 73 1.7 W 24 32 13 17 1012.7 1012.7 1.6
31/04:00am 5.5 -0.1 1.2 74 1.7 W 20 28 11 15 1012.2 1012.2 1.6
31/03:30am 5.7 0.3 2.5 80 1.3 WNW 20 26 11 14 1011.6 1011.6 1.6
31/03:00am 5.9 -0.9 2.9 81 1.2 W 28 33 15 18 1011.2 1011.2 1.6
31/02:30am 6.5 -1.2 3.5 81 1.3 W 33 43 18 23 1010.7 1010.7 1.6
31/02:00am 6.7 0.5 4.2 84 1.1 W 26 33 14 18 1010.2 1010.2 1.6
31/01:30am 7.2 1.1 4.7 84 1.1 WNW 26 33 14 18 1009.7 1009.7 1.6
31/01:00am 7.5 1.8 4.8 83 1.2 W 24 32 13 17 1008.8 1008.8 1.6
31/12:30am 8.0 2.0 5.1 82 1.3 W 26 39 14 21 1008.0 1008.0 1.6
31/12:00am 8.0 3.1 5.3 83 1.2 W 20 28 11 15 1007.3 1007.3 1.6
 
Date/Time
EST
Temp
°C
App
Temp
°C
Dew
Point
Rel
Hum
%
Delta-T
°C
Wind Press
QNH
hPa
Press
MSL
hPa
Rain
since 9 am
mm
Dir
 
Spd
km/h
Gust
km/h
Spd
kts
Gust
kts
30/11:30pm 8.5 2.5 5.3 80 1.4 WNW 26 37 14 20 1006.8 1006.8 1.6
30/11:00pm 9.0 1.3 5.2 77 1.7 W 35 56 19 30 1006.6 1006.6 1.6
30/10:30pm 9.6 -0.4 6.0 78 1.7 WNW 48 76 26 41 1005.1 1005.1 1.6

Other Formats:

Comma delimited format used in spreadsheet applications
http://www.bom.gov.au/fwo/IDT60801/IDT60801.94983.axf

JavaScript Object Notation format (JSON) in row-major order
http://www.bom.gov.au/fwo/IDT60801/IDT60801.94983.json